createdAt,value
2018-06-05T00:00:39.352Z,15.93
2018-06-05T00:03:07.921Z,14.97
2018-06-05T00:05:36.275Z,14.70
2018-06-05T00:08:04.661Z,14.37
2018-06-05T00:10:33.021Z,15.77
2018-06-05T00:13:01.684Z,15.50
2018-06-05T00:15:30.202Z,15.73
2018-06-05T00:17:58.900Z,15.97
2018-06-05T00:20:27.798Z,15.37
2018-06-05T00:22:56.102Z,16.83
2018-06-05T00:25:24.556Z,16.43
2018-06-05T00:27:53.346Z,15.20
2018-06-05T00:30:21.731Z,14.90
2018-06-05T00:32:50.036Z,15.30
2018-06-05T00:35:18.388Z,15.43
2018-06-05T00:37:46.750Z,14.63
2018-06-05T00:40:15.457Z,15.70
2018-06-05T00:42:43.802Z,15.83
2018-06-05T00:45:12.200Z,15.37
2018-06-05T00:47:40.481Z,15.50
2018-06-05T00:50:09.065Z,16.60
2018-06-05T00:52:37.368Z,16.10
2018-06-05T00:55:06.355Z,16.23
2018-06-05T00:57:34.725Z,15.87
2018-06-05T01:00:03.501Z,15.67
2018-06-05T01:02:31.784Z,17.23
2018-06-05T01:05:00.169Z,16.03
2018-06-05T01:07:28.541Z,16.40
2018-06-05T01:09:57.022Z,16.67
2018-06-05T01:12:25.480Z,16.87
2018-06-05T01:14:53.967Z,15.57
2018-06-05T01:17:22.639Z,16.20
2018-06-05T01:19:51.036Z,16.40
2018-06-05T01:22:19.437Z,16.77
2018-06-05T01:24:48.091Z,16.00
2018-06-05T01:27:16.784Z,16.73
2018-06-05T01:29:45.212Z,16.57
2018-06-05T01:32:13.635Z,16.47
2018-06-05T01:34:42.251Z,16.20
2018-06-05T01:37:10.652Z,16.83
2018-06-05T01:39:39.076Z,16.43
2018-06-05T01:42:07.404Z,16.10
2018-06-05T01:44:35.780Z,16.83
2018-06-05T01:47:04.452Z,16.70
2018-06-05T01:49:38.123Z,16.50
2018-06-05T01:52:06.416Z,15.77
2018-06-05T01:54:34.916Z,16.00
2018-06-05T01:57:03.807Z,16.33
2018-06-05T01:59:32.597Z,16.63
2018-06-05T02:02:00.876Z,16.40
2018-06-05T02:04:29.572Z,16.00
2018-06-05T02:06:58.349Z,16.07
2018-06-05T02:09:26.937Z,16.77
2018-06-05T02:11:55.380Z,16.77
2018-06-05T02:14:23.678Z,16.47
2018-06-05T02:16:51.976Z,16.10
2018-06-05T02:19:20.256Z,16.73
2018-06-05T02:21:48.527Z,16.97
2018-06-05T02:24:17.289Z,16.70
2018-06-05T02:26:45.616Z,15.67
2018-06-05T02:29:13.947Z,16.57
2018-06-05T02:31:42.260Z,16.17
2018-06-05T02:34:10.800Z,15.70
2018-06-05T02:36:39.064Z,15.60
2018-06-05T02:39:07.488Z,15.70
2018-06-05T02:41:35.971Z,16.40
2018-06-05T02:44:04.235Z,16.50
2018-06-05T02:46:32.730Z,16.33
2018-06-05T02:49:00.996Z,16.03
2018-06-05T02:51:29.370Z,16.07
2018-06-05T02:53:57.643Z,16.17
2018-06-05T02:56:26.147Z,16.67
2018-06-05T02:58:54.540Z,15.87
2018-06-05T03:01:22.972Z,16.13
2018-06-05T03:03:51.316Z,16.43
2018-06-05T03:06:20.072Z,16.57
2018-06-05T03:08:48.466Z,15.83
2018-06-05T03:11:16.782Z,15.50
2018-06-05T03:13:45.112Z,16.43
2018-06-05T03:16:13.797Z,15.87
2018-06-05T03:18:42.250Z,16.43
2018-06-05T03:21:10.580Z,16.27
2018-06-05T03:23:38.938Z,16.17
2018-06-05T03:26:07.419Z,17.27
2018-06-05T03:28:35.706Z,16.17
2018-06-05T03:31:04.059Z,17.40
2018-06-05T03:33:32.554Z,17.00
2018-06-05T03:36:00.813Z,16.17
2018-06-05T03:38:29.445Z,15.77
2018-06-05T03:40:57.900Z,16.43
2018-06-05T03:43:26.253Z,17.07
2018-06-05T03:45:54.944Z,15.83
2018-06-05T03:48:23.368Z,16.70
2018-06-05T03:50:52.130Z,17.00
2018-06-05T03:53:20.817Z,16.80
2018-06-05T03:55:49.509Z,17.07
2018-06-05T03:58:18.204Z,15.77
2018-06-05T04:00:46.878Z,17.67
2018-06-05T04:03:15.496Z,16.53
2018-06-05T04:05:43.948Z,17.47
2018-06-05T04:08:12.329Z,17.77
2018-06-05T04:10:40.620Z,18.53
2018-06-05T04:13:08.880Z,18.70
2018-06-05T04:15:37.392Z,26.67
2018-06-05T04:18:06.064Z,20.70
2018-06-05T04:20:34.404Z,22.60
2018-06-05T04:23:02.809Z,22.23
2018-06-05T04:25:31.192Z,23.67
2018-06-05T04:27:59.566Z,23.97
2018-06-05T04:30:27.944Z,22.00
2018-06-05T04:32:56.331Z,23.70
2018-06-05T04:35:24.707Z,22.53
2018-06-05T04:37:53.044Z,23.80
2018-06-05T04:40:21.567Z,22.53
2018-06-05T04:42:49.849Z,22.17
2018-06-05T04:45:18.151Z,21.37
2018-06-05T04:47:46.664Z,19.83
2018-06-05T04:50:15.601Z,20.40
2018-06-05T04:52:43.976Z,22.43
2018-06-05T04:55:12.345Z,19.77
2018-06-05T04:57:40.712Z,19.93
2018-06-05T05:00:09.220Z,19.60
2018-06-05T05:02:37.901Z,21.27
2018-06-05T05:05:06.283Z,20.60
2018-06-05T05:07:34.544Z,19.23
2018-06-05T05:10:02.965Z,18.83
2018-06-05T05:12:31.295Z,19.13
2018-06-05T05:14:59.732Z,19.87
2018-06-05T05:17:28.320Z,19.33
2018-06-05T05:19:56.624Z,19.07
2018-06-05T05:22:25.432Z,17.67
2018-06-05T05:24:54.016Z,19.97
2018-06-05T05:27:22.619Z,19.20
2018-06-05T05:29:50.997Z,18.17
2018-06-05T05:32:19.288Z,18.00
2018-06-05T05:34:47.739Z,16.40
2018-06-05T05:37:16.016Z,17.73
2018-06-05T05:39:44.444Z,16.37
2018-06-05T05:42:13.202Z,18.17
2018-06-05T05:44:42.072Z,17.27
2018-06-05T05:47:10.399Z,16.73
2018-06-05T05:49:38.857Z,15.73
2018-06-05T05:52:07.115Z,16.00
2018-06-05T05:54:35.428Z,14.97
2018-06-05T05:57:03.897Z,16.67
2018-06-05T05:59:32.185Z,15.87
2018-06-05T06:02:00.507Z,14.93
2018-06-05T06:04:28.832Z,15.30
2018-06-05T06:06:57.204Z,15.63
2018-06-05T06:09:25.615Z,15.17
2018-06-05T06:11:54.064Z,15.03
2018-06-05T06:14:22.751Z,16.63
2018-06-05T06:16:51.014Z,16.07
2018-06-05T06:19:19.308Z,16.00
2018-06-05T06:21:47.796Z,15.30
2018-06-05T06:24:16.089Z,14.30
2018-06-05T06:26:44.651Z,15.60
2018-06-05T06:29:13.230Z,16.30
2018-06-05T06:31:41.717Z,15.77
2018-06-05T06:34:10.133Z,15.37
2018-06-05T06:36:39.086Z,15.87
2018-06-05T06:39:08.912Z,15.30
2018-06-05T06:41:37.625Z,15.50
2018-06-05T06:44:05.978Z,16.40
2018-06-05T06:46:34.448Z,15.10
2018-06-05T06:49:02.876Z,18.43
2018-06-05T06:51:31.140Z,17.47
2018-06-05T06:53:59.482Z,16.47
2018-06-05T06:56:28.125Z,15.53
2018-06-05T06:58:56.499Z,16.13
2018-06-05T07:01:24.940Z,15.87
2018-06-05T07:03:53.418Z,16.50
2018-06-05T07:06:21.725Z,15.13
2018-06-05T07:08:50.024Z,20.60
2018-06-05T07:11:18.537Z,14.93
2018-06-05T07:13:46.963Z,15.53
2018-06-05T07:16:15.808Z,16.77
2018-06-05T07:18:44.184Z,14.93
2018-06-05T07:21:12.589Z,17.07
2018-06-05T07:23:41.064Z,15.77
2018-06-05T07:26:09.361Z,17.13
2018-06-05T07:28:37.810Z,15.50
2018-06-05T07:31:06.223Z,17.13
2018-06-05T07:33:45.948Z,14.93
2018-06-05T07:36:14.532Z,15.00
2018-06-05T07:38:42.893Z,15.33
2018-06-05T07:41:11.287Z,15.13
2018-06-05T07:43:39.688Z,14.50
2018-06-05T07:46:08.338Z,16.83
2018-06-05T07:48:37.087Z,15.03
2018-06-05T07:51:05.360Z,15.67
2018-06-05T07:53:34.253Z,14.20
2018-06-05T07:56:02.536Z,15.70
2018-06-05T07:58:30.944Z,15.53
2018-06-05T08:00:59.544Z,14.80
2018-06-05T08:03:28.039Z,15.70
2018-06-05T08:05:57.244Z,15.60
2018-06-05T08:08:25.912Z,14.77
2018-06-05T08:10:54.621Z,16.00
2018-06-05T08:13:23.588Z,14.13
2018-06-05T08:15:52.012Z,13.77
2018-06-05T08:18:20.736Z,13.80
2018-06-05T08:20:49.654Z,13.60
2018-06-05T08:23:18.048Z,14.30
2018-06-05T08:25:46.377Z,14.30
2018-06-05T08:28:14.784Z,14.33
2018-06-05T08:30:44.207Z,14.87
2018-06-05T08:33:12.488Z,13.07
2018-06-05T08:35:41.148Z,13.63
2018-06-05T08:38:09.442Z,12.73
2018-06-05T08:40:37.932Z,12.63
2018-06-05T08:43:06.284Z,12.67
2018-06-05T08:45:34.672Z,12.97
2018-06-05T08:48:03.080Z,12.20
2018-06-05T08:50:31.477Z,12.30
2018-06-05T08:53:00.122Z,12.10
2018-06-05T08:55:28.400Z,11.77
2018-06-05T08:57:56.714Z,11.50
2018-06-05T09:00:25.021Z,12.00
2018-06-05T09:02:53.734Z,12.15
2018-06-05T09:05:22.660Z,15.60
2018-06-05T09:07:50.996Z,14.93
2018-06-05T09:10:19.404Z,13.57
2018-06-05T09:12:47.878Z,13.53
2018-06-05T09:15:16.246Z,13.30
2018-06-05T09:17:44.856Z,11.87
2018-06-05T09:20:13.237Z,12.07
2018-06-05T09:22:42.035Z,12.27
2018-06-05T09:25:10.337Z,11.90
2018-06-05T09:27:38.663Z,12.47
2018-06-05T09:30:06.952Z,13.87
2018-06-05T09:32:35.725Z,11.17
2018-06-05T09:35:04.443Z,11.73
2018-06-05T09:37:33.424Z,11.03
2018-06-05T09:40:02.525Z,13.37
2018-06-05T09:42:31.144Z,11.23
2018-06-05T09:44:59.458Z,11.30
2018-06-05T09:47:27.870Z,10.78
2018-06-05T09:49:56.238Z,10.90
2018-06-05T09:52:24.658Z,10.57
2018-06-05T09:54:53.293Z,10.40
2018-06-05T09:57:21.968Z,10.13
2018-06-05T09:59:50.669Z,10.00
2018-06-05T10:02:19.035Z,10.53
2018-06-05T10:04:47.476Z,10.55
2018-06-05T10:07:15.793Z,10.33
2018-06-05T10:09:44.095Z,11.53
2018-06-05T10:12:12.874Z,9.97
2018-06-05T10:14:41.872Z,11.37
2018-06-05T10:17:11.840Z,10.30
2018-06-05T10:19:40.116Z,10.23
2018-06-05T10:22:08.657Z,10.03
2018-06-05T10:24:37.037Z,9.90
2018-06-05T10:27:05.342Z,8.93
2018-06-05T10:29:33.605Z,9.23
2018-06-05T10:32:01.897Z,9.38
2018-06-05T10:34:30.181Z,13.17
2018-06-05T10:36:58.844Z,10.00
2018-06-05T10:39:27.808Z,9.33
2018-06-05T10:41:56.517Z,9.87
2018-06-05T10:44:25.349Z,9.00
2018-06-05T10:46:53.767Z,10.13
2018-06-05T10:49:22.060Z,10.00
2018-06-05T10:51:50.311Z,9.47
2018-06-05T10:54:18.817Z,15.37
2018-06-05T10:56:47.380Z,9.50
2018-06-05T10:59:15.680Z,10.00
2018-06-05T11:01:44.140Z,9.97
2018-06-05T11:04:12.529Z,10.20
2018-06-05T11:06:41.533Z,10.20
2018-06-05T11:09:10.527Z,10.23
2018-06-05T11:11:38.915Z,15.87
2018-06-05T11:14:07.933Z,17.57
2018-06-05T11:16:37.035Z,11.40
2018-06-05T11:19:05.577Z,15.47
2018-06-05T11:21:34.248Z,15.17
2018-06-05T11:24:02.985Z,13.50
2018-06-05T11:26:31.728Z,16.53
2018-06-05T11:29:00.328Z,14.43
2018-06-05T11:31:29.090Z,9.90
2018-06-05T11:33:58.012Z,9.20
2018-06-05T11:36:26.470Z,9.63
2018-06-05T11:38:55.165Z,10.57
2018-06-05T11:41:24.196Z,10.47
2018-06-05T11:43:52.740Z,9.00
2018-06-05T11:46:21.164Z,10.90
2018-06-05T11:48:49.840Z,10.30
2018-06-05T11:51:18.803Z,9.27
2018-06-05T11:53:47.513Z,8.73
2018-06-05T11:56:16.014Z,9.10
2018-06-05T11:58:44.578Z,10.23
2018-06-05T12:01:13.053Z,9.30
2018-06-05T12:03:41.924Z,9.07
2018-06-05T12:06:10.295Z,9.73
2018-06-05T12:08:39.316Z,8.37
2018-06-05T12:11:08.129Z,9.87
2018-06-05T12:13:37.012Z,9.37
2018-06-05T12:16:05.364Z,8.57
2018-06-05T12:18:34.072Z,9.17
2018-06-05T12:21:02.431Z,9.00
2018-06-05T12:23:31.221Z,8.83
2018-06-05T12:26:00.456Z,8.87
2018-06-05T12:28:28.816Z,9.50
2018-06-05T12:30:57.280Z,8.90
2018-06-05T12:33:25.967Z,9.10
2018-06-05T12:35:54.757Z,8.27
2018-06-05T12:38:24.045Z,9.50
2018-06-05T12:40:52.539Z,8.67
2018-06-05T12:43:21.712Z,9.43
2018-06-05T12:45:50.340Z,9.07
2018-06-05T12:48:18.996Z,8.90
2018-06-05T12:50:47.909Z,8.73
2018-06-05T12:53:16.380Z,8.50
2018-06-05T12:55:45.092Z,7.97
2018-06-05T12:58:13.743Z,8.50
2018-06-05T13:00:42.700Z,8.33
2018-06-05T13:03:11.932Z,9.17
2018-06-05T13:05:40.621Z,8.93
2018-06-05T13:08:09.118Z,8.63
2018-06-05T13:10:38.026Z,9.03
2018-06-05T13:13:06.680Z,8.77
2018-06-05T13:15:36.073Z,8.80
2018-06-05T13:18:04.876Z,8.00
2018-06-05T13:20:33.364Z,9.80
2018-06-05T13:23:01.900Z,8.00
2018-06-05T13:25:30.426Z,8.00
2018-06-05T13:27:58.704Z,8.80
2018-06-05T13:30:27.049Z,8.77
2018-06-05T13:32:55.588Z,8.67
2018-06-05T13:35:24.068Z,8.83
2018-06-05T13:37:52.347Z,8.17
2018-06-05T13:40:20.721Z,8.33
2018-06-05T13:42:49.080Z,8.30
2018-06-05T13:45:17.333Z,9.23
2018-06-05T13:47:46.372Z,8.20
2018-06-05T13:50:14.831Z,10.57
2018-06-05T13:52:43.143Z,8.87
2018-06-05T13:55:11.904Z,10.60
2018-06-05T13:57:40.403Z,9.00
2018-06-05T14:00:08.712Z,15.57
2018-06-05T14:02:38.010Z,36.70
2018-06-05T14:05:06.463Z,32.23
2018-06-05T14:07:35.436Z,29.13
2018-06-05T14:10:03.746Z,26.13
2018-06-05T14:12:32.145Z,24.77
2018-06-05T14:15:00.480Z,23.97
2018-06-05T14:17:28.878Z,24.50
2018-06-05T14:19:57.232Z,19.57
2018-06-05T14:22:25.620Z,21.13
2018-06-05T14:24:54.317Z,17.27
2018-06-05T14:27:22.608Z,17.97
2018-06-05T14:29:51.179Z,20.50
2018-06-05T14:32:19.866Z,14.87
2018-06-05T14:34:48.142Z,14.37
2018-06-05T14:37:16.532Z,16.30
2018-06-05T14:39:44.848Z,18.27
2018-06-05T14:42:13.240Z,17.77
2018-06-05T14:44:41.665Z,15.60
2018-06-05T14:47:10.332Z,15.50
2018-06-05T14:49:39.006Z,12.10
2018-06-05T14:52:07.467Z,12.30
2018-06-05T14:54:35.861Z,11.37
2018-06-05T14:57:04.264Z,13.77
2018-06-05T14:59:33.064Z,9.37
2018-06-05T15:02:01.837Z,11.73
2018-06-05T15:04:30.885Z,10.23
2018-06-05T15:06:59.228Z,10.93
2018-06-05T15:09:28.236Z,11.37
2018-06-05T15:11:57.012Z,10.37
2018-06-05T15:14:25.620Z,13.43
2018-06-05T15:16:54.009Z,11.10
2018-06-05T15:20:24.826Z,9.53
2018-06-05T15:22:53.508Z,9.60
2018-06-05T15:25:22.199Z,11.60
2018-06-05T15:27:50.575Z,10.03
2018-06-05T15:30:19.079Z,10.27
2018-06-05T15:32:47.696Z,11.70
2018-06-05T15:35:15.980Z,11.03
2018-06-05T15:37:44.297Z,7.93
2018-06-05T15:40:12.716Z,11.03
2018-06-05T15:42:41.395Z,17.73
2018-06-05T15:45:09.724Z,10.40
2018-06-05T15:47:38.026Z,9.90
2018-06-05T15:50:06.608Z,10.33
2018-06-05T15:52:34.908Z,10.33
2018-06-05T15:55:03.572Z,9.70
2018-06-05T15:57:31.932Z,11.63
2018-06-05T16:00:00.308Z,10.10
2018-06-05T16:02:28.713Z,12.00
2018-06-05T16:04:57.392Z,16.20
2018-06-05T16:07:25.678Z,10.50
2018-06-05T16:09:54.131Z,13.03
2018-06-05T16:12:22.449Z,12.37
2018-06-05T16:14:50.918Z,9.87
2018-06-05T16:17:19.317Z,9.80
2018-06-05T16:19:47.579Z,9.20
2018-06-05T16:22:16.052Z,13.17
2018-06-05T16:24:44.760Z,10.47
2018-06-05T16:27:13.100Z,11.27
2018-06-05T16:29:41.553Z,11.23
2018-06-05T16:32:09.976Z,10.43
2018-06-05T16:34:38.544Z,9.80
2018-06-05T16:37:07.164Z,11.07
2018-06-05T16:39:36.041Z,9.27
2018-06-05T16:42:04.481Z,10.40
2018-06-05T16:44:33.292Z,12.30
2018-06-05T16:47:01.670Z,11.30
2018-06-05T16:49:30.162Z,12.37
2018-06-05T16:51:58.424Z,11.33
2018-06-05T16:54:26.684Z,11.73
2018-06-05T16:56:55.229Z,11.20
2018-06-05T16:59:23.584Z,9.63
2018-06-05T17:01:52.005Z,9.33
2018-06-05T17:04:20.682Z,9.27
2018-06-05T17:06:49.004Z,11.43
2018-06-05T17:09:17.429Z,9.23
2018-06-05T17:11:45.776Z,8.63
2018-06-05T17:14:14.144Z,9.90
2018-06-05T17:16:42.903Z,11.30
2018-06-05T17:19:11.929Z,8.60
2018-06-05T17:21:40.180Z,9.60
2018-06-05T17:24:08.612Z,10.10
2018-06-05T17:26:36.969Z,8.17
2018-06-05T17:29:05.468Z,8.73
2018-06-05T17:31:34.154Z,9.47
2018-06-05T17:34:02.467Z,8.93
2018-06-05T17:36:30.796Z,8.90
2018-06-05T17:38:59.069Z,9.77
2018-06-05T17:41:27.576Z,9.47
2018-06-05T17:43:55.928Z,9.07
2018-06-05T17:46:24.225Z,8.70
2018-06-05T17:48:52.697Z,9.30
2018-06-05T17:51:21.075Z,8.50
2018-06-05T17:53:49.777Z,8.87
2018-06-05T17:56:18.482Z,8.90
2018-06-05T17:58:46.904Z,10.57
2018-06-05T18:01:15.213Z,9.17
2018-06-05T18:03:43.600Z,8.13
2018-06-05T18:06:12.277Z,10.83
2018-06-05T18:08:40.869Z,11.13
2018-06-05T18:11:09.454Z,10.47
2018-06-05T18:13:38.936Z,8.73
2018-06-05T18:16:07.340Z,9.63
2018-06-05T18:18:35.749Z,9.50
2018-06-05T18:21:04.126Z,9.13
2018-06-05T18:23:32.724Z,12.00
2018-06-05T18:26:01.405Z,9.27
2018-06-05T18:28:29.864Z,8.97
2018-06-05T18:30:58.232Z,9.87
2018-06-05T18:33:26.714Z,10.53
2018-06-05T18:35:55.379Z,9.13
2018-06-05T18:38:24.091Z,10.43
2018-06-05T18:40:52.352Z,10.13
2018-06-05T18:43:20.847Z,9.10
2018-06-05T18:45:49.100Z,12.07
2018-06-05T18:48:17.380Z,9.70
2018-06-05T18:50:46.131Z,11.27
2018-06-05T18:53:14.857Z,10.93
2018-06-05T18:55:43.575Z,9.43
2018-06-05T18:58:11.944Z,9.67
2018-06-05T19:00:40.670Z,11.00
2018-06-05T19:03:09.018Z,11.03
2018-06-05T19:05:37.462Z,10.00
2018-06-05T19:08:05.753Z,13.10
2018-06-05T19:10:34.161Z,9.97
2018-06-05T19:13:02.572Z,10.80
2018-06-05T19:15:31.314Z,10.40
2018-06-05T19:18:00.493Z,11.33
2018-06-05T19:20:28.894Z,10.80
2018-06-05T19:22:57.615Z,11.20
2018-06-05T19:25:26.277Z,13.13
2018-06-05T19:27:55.241Z,10.73
2018-06-05T19:30:23.628Z,10.50
2018-06-05T19:32:51.896Z,12.13
2018-06-05T19:35:20.404Z,10.03
2018-06-05T19:37:48.880Z,11.90
2018-06-05T19:40:17.472Z,12.40
2018-06-05T19:42:45.839Z,10.53
2018-06-05T19:45:14.491Z,11.53
2018-06-05T19:47:43.228Z,15.90
2018-06-05T19:50:11.579Z,14.37
2018-06-05T19:52:39.861Z,14.20
2018-06-05T19:55:08.220Z,11.57
2018-06-05T19:57:36.488Z,10.73
2018-06-05T20:00:04.789Z,11.23
2018-06-05T20:02:33.478Z,11.47
2018-06-05T20:05:01.776Z,14.30
2018-06-05T20:07:30.235Z,12.53
2018-06-05T20:09:58.632Z,15.23
2018-06-05T20:12:27.356Z,16.10
2018-06-05T20:14:55.708Z,16.50
2018-06-05T20:17:24.293Z,10.57
2018-06-05T20:19:52.591Z,14.70
2018-06-05T20:22:20.864Z,10.80
2018-06-05T20:24:49.200Z,14.53
2018-06-05T20:27:17.502Z,12.30
2018-06-05T20:29:46.309Z,11.07
2018-06-05T20:32:14.973Z,11.63
2018-06-05T20:34:43.639Z,13.87
2018-06-05T20:37:12.204Z,12.00
2018-06-05T20:39:40.728Z,13.00
2018-06-05T20:42:09.109Z,13.17
2018-06-05T20:44:37.369Z,13.60
2018-06-05T20:47:06.149Z,14.43
2018-06-05T20:49:34.445Z,15.17
2018-06-05T20:52:02.958Z,12.87
2018-06-05T20:54:31.332Z,14.43
2018-06-05T20:56:59.696Z,13.87
2018-06-05T20:59:28.068Z,13.57
2018-06-05T21:01:56.428Z,11.67
2018-06-05T21:04:24.761Z,11.33
2018-06-05T21:06:53.192Z,14.30
2018-06-05T21:09:21.571Z,14.43
2018-06-05T21:11:50.374Z,13.33
2018-06-05T21:14:19.305Z,14.77
2018-06-05T21:16:47.963Z,13.40
2018-06-05T21:19:16.892Z,11.87
2018-06-05T21:21:45.308Z,13.93
2018-06-05T21:24:13.980Z,12.27
2018-06-05T21:26:42.372Z,13.27
2018-06-05T21:29:10.776Z,12.97
2018-06-05T21:31:39.157Z,14.27
2018-06-05T21:34:07.543Z,11.83
2018-06-05T21:36:36.264Z,13.67
2018-06-05T21:39:07.053Z,15.83
2018-06-05T21:41:35.461Z,13.07
2018-06-05T21:44:03.792Z,13.97
2018-06-05T21:46:32.512Z,15.73
2018-06-05T21:49:00.904Z,18.10
2018-06-05T21:51:29.564Z,14.63
2018-06-05T21:53:57.952Z,12.67
2018-06-05T21:56:26.432Z,12.70
2018-06-05T21:58:54.729Z,12.87
2018-06-05T22:01:23.068Z,14.37
2018-06-05T22:03:51.446Z,13.97
2018-06-05T22:06:19.945Z,14.63
2018-06-05T22:08:48.250Z,15.23
2018-06-05T22:11:16.938Z,16.23
2018-06-05T22:13:45.604Z,13.53
2018-06-05T22:16:14.292Z,14.93
2018-06-05T22:18:42.640Z,14.00
2018-06-05T22:21:10.981Z,13.13
2018-06-05T22:23:39.707Z,13.60
2018-06-05T22:26:08.120Z,13.50
2018-06-05T22:28:36.473Z,13.57
2018-06-05T22:31:04.865Z,12.53
2018-06-05T22:33:33.858Z,19.13
2018-06-05T22:36:02.229Z,14.70
2018-06-05T22:38:30.864Z,13.10
2018-06-05T22:40:59.411Z,12.23
2018-06-05T22:43:27.672Z,12.00
2018-06-05T22:45:56.049Z,11.07
2018-06-05T22:48:24.428Z,12.50
2018-06-05T22:50:53.137Z,11.60
2018-06-05T22:53:21.864Z,9.53
2018-06-05T22:55:50.553Z,9.43
2018-06-05T22:58:19.176Z,9.90
2018-06-05T23:00:47.446Z,7.80
2018-06-05T23:03:15.745Z,8.40
2018-06-05T23:05:44.004Z,7.87
2018-06-05T23:08:12.504Z,6.93
2018-06-05T23:10:41.112Z,5.80
2018-06-05T23:13:09.412Z,9.53
2018-06-05T23:15:37.829Z,7.40
2018-06-05T23:18:06.544Z,5.90
2018-06-05T23:20:34.898Z,8.07
2018-06-05T23:23:03.618Z,5.10
2018-06-05T23:25:31.960Z,7.83
2018-06-05T23:28:00.342Z,6.47
2018-06-05T23:30:28.842Z,7.13
2018-06-05T23:32:57.168Z,7.37
2018-06-05T23:35:26.215Z,5.07
2018-06-05T23:37:54.487Z,4.30
2018-06-05T23:40:23.189Z,5.50
2018-06-05T23:42:51.854Z,6.73
2018-06-05T23:45:20.552Z,7.13
2018-06-05T23:47:49.650Z,7.25
2018-06-05T23:50:18.068Z,4.60
2018-06-05T23:52:46.624Z,4.03
2018-06-05T23:55:14.897Z,9.77
2018-06-05T23:57:43.400Z,4.87
